Time;durP1;ratioP1;P1;durP2;ratioP2;P2;SDS_P1;SDS_P2;PMS_P1;PMS_P2;Temp;Humidity;BMP_temperature;BMP_pressure;BME280_temperature;BME280_humidity;BME280_pressure;Samples;Min_cycle;Max_cycle;Signal;HPM_P1;HPM_P2
2021/06/14 00:00:30;;;;;;;4.60;2.70;;;12.30;99.90;;;;;;4993796;28;20453;-83
2021/06/14 00:02:59;;;;;;;3.03;2.40;;;12.30;99.90;;;;;;4993461;28;20457;-83
2021/06/14 00:05:32;;;;;;;6.60;3.23;;;11.90;99.90;;;;;;4993747;28;20449;-83
2021/06/14 00:07:59;;;;;;;3.30;3.00;;;;;;;;;;4993020;28;20587;-82
2021/06/14 00:10:28;;;;;;;6.63;3.00;;;12.40;99.90;;;;;;4993435;28;20453;-83
2021/06/14 00:12:55;;;;;;;4.40;2.80;;;;;;;;;;4993795;28;20928;-84
2021/06/14 00:15:22;;;;;;;3.53;3.20;;;12.20;99.90;;;;;;4993597;28;20941;-82
2021/06/14 00:17:49;;;;;;;6.27;2.23;;;12.20;99.90;;;;;;4988533;28;20456;-82
2021/06/14 00:20:19;;;;;;;5.13;3.37;;;12.00;99.90;;;;;;4988418;28;20453;-82
2021/06/14 00:22:46;;;;;;;8.43;3.00;;;11.90;99.90;;;;;;4993557;28;20448;-84
2021/06/14 00:25:16;;;;;;;3.60;3.20;;;11.90;99.90;;;;;;4992265;28;20453;-82
2021/06/14 00:27:43;;;;;;;3.80;3.13;;;11.70;99.90;;;;;;4993435;28;20449;-82
2021/06/14 00:30:11;;;;;;;5.83;3.50;;;11.90;99.90;;;;;;4993496;28;20933;-83
2021/06/14 00:32:38;;;;;;;3.70;3.10;;;12.00;99.90;;;;;;4993605;28;20449;-82
2021/06/14 00:35:06;;;;;;;4.07;2.93;;;11.80;99.90;;;;;;4993507;28;20449;-82
2021/06/14 00:37:35;;;;;;;4.90;2.73;;;11.80;99.90;;;;;;4993857;28;20456;-82
2021/06/14 00:40:02;;;;;;;3.80;3.13;;;;;;;;;;4992069;28;20505;-84
2021/06/14 00:42:29;;;;;;;4.87;3.23;;;;;;;;;;4993355;28;20461;-83
2021/06/14 00:44:56;;;;;;;4.40;2.87;;;;;;;;;;4993371;28;20803;-81
2021/06/14 00:47:23;;;;;;;3.70;3.30;;;11.70;99.90;;;;;;4993430;28;20644;-81
2021/06/14 00:49:50;;;;;;;4.43;3.50;;;11.40;99.90;;;;;;4993480;28;20449;-82
2021/06/14 00:52:17;;;;;;;5.70;3.10;;;;;;;;;;4992883;28;20449;-84
2021/06/14 00:54:45;;;;;;;4.23;3.50;;;11.70;99.90;;;;;;4991819;28;20449;-85
2021/06/14 00:57:12;;;;;;;6.67;3.40;;;11.60;99.90;;;;;;4993470;28;20909;-84
2021/06/14 00:59:39;;;;;;;4.53;2.90;;;;;;;;;;4993496;28;20500;-85
2021/06/14 01:02:06;;;;;;;3.73;3.00;;;11.50;99.90;;;;;;4993256;28;20449;-86
2021/06/14 01:04:33;;;;;;;3.60;3.10;;;;;;;;;;4993531;28;20445;-82
2021/06/14 01:07:01;;;;;;;3.70;2.53;;;;;;;;;;4993016;28;20492;-82
2021/06/14 01:09:28;;;;;;;4.20;3.20;;;;;;;;;;4992329;28;20449;-83
2021/06/14 01:12:02;;;;;;;4.20;3.10;;;11.40;99.90;;;;;;4993084;28;20449;-82
2021/06/14 01:14:34;;;;;;;3.50;2.83;;;11.40;99.90;;;;;;4993280;28;20444;-83
2021/06/14 01:17:09;;;;;;;4.33;3.10;;;11.20;99.90;;;;;;4990920;28;20445;-83
2021/06/14 01:20:14;;;;;;;3.90;3.37;;;11.20;99.90;;;;;;4992590;28;20519;-82
2021/06/14 01:23:13;;;;;;;5.90;3.10;;;11.60;99.90;;;;;;4979633;28;20519;-87
2021/06/14 01:25:49;;;;;;;5.13;3.27;;;11.20;99.90;;;;;;4997008;28;20791;-82
2021/06/14 01:28:19;;;;;;;4.40;3.67;;;11.20;99.90;;;;;;4990048;28;20452;-84
2021/06/14 01:30:48;;;;;;;4.57;3.33;;;11.10;99.90;;;;;;4997488;28;20456;-82
2021/06/14 01:33:20;;;;;;;3.10;2.90;;;11.10;99.90;;;;;;4997897;28;20456;-84
2021/06/14 01:35:50;;;;;;;4.23;3.70;;;11.10;99.90;;;;;;4997056;28;20453;-84
2021/06/14 01:38:18;;;;;;;3.70;2.90;;;11.60;99.90;;;;;;4995645;28;20452;-83
2021/06/14 01:40:48;;;;;;;4.00;3.30;;;11.10;99.90;;;;;;4996247;28;20485;-82
2021/06/14 01:43:18;;;;;;;6.30;3.90;;;11.00;99.90;;;;;;4996302;28;20457;-81
2021/06/14 01:45:49;;;;;;;5.00;3.70;;;11.00;99.90;;;;;;4995956;28;20457;-81
2021/06/14 01:48:19;;;;;;;5.10;3.57;;;11.00;99.90;;;;;;4996284;28;20468;-82
2021/06/14 01:50:46;;;;;;;3.33;3.03;;;;;;;;;;4996364;28;20809;-82
2021/06/14 01:53:13;;;;;;;6.33;3.47;;;;;;;;;;4994699;28;20449;-82
2021/06/14 01:55:41;;;;;;;4.37;3.50;;;11.10;99.90;;;;;;4996195;28;20449;-82
2021/06/14 01:58:09;;;;;;;4.40;3.47;;;10.90;99.90;;;;;;4996176;28;20441;-81
2021/06/14 02:00:40;;;;;;;6.00;3.77;;;10.90;99.90;;;;;;4996153;28;20449;-81
2021/06/14 02:03:08;;;;;;;6.70;3.60;;;10.80;99.90;;;;;;4996043;28;20452;-81
2021/06/14 02:05:36;;;;;;;6.27;3.60;;;10.80;99.90;;;;;;4994257;28;20786;-83
2021/06/14 02:08:04;;;;;;;3.90;3.33;;;10.70;99.90;;;;;;4994673;28;20488;-81
2021/06/14 02:10:35;;;;;;;4.83;3.77;;;10.80;99.90;;;;;;4993839;28;20495;-83
2021/06/14 02:13:03;;;;;;;4.93;3.47;;;10.20;99.90;;;;;;4995434;28;20448;-81
2021/06/14 02:15:31;;;;;;;5.23;3.50;;;11.40;99.90;;;;;;4995776;28;20460;-82
2021/06/14 02:18:02;;;;;;;3.73;3.33;;;10.60;99.90;;;;;;4995541;28;20479;-81
2021/06/14 02:20:29;;;;;;;4.60;3.50;;;10.70;99.90;;;;;;4995571;28;21100;-82
2021/06/14 02:22:56;;;;;;;4.70;3.43;;;10.70;99.90;;;;;;4994747;28;20445;-81
2021/06/14 02:25:23;;;;;;;3.77;3.10;;;;;;;;;;4995765;28;20445;-81
2021/06/14 02:27:50;;;;;;;3.90;3.50;;;;;;;;;;4995599;28;20462;-83
2021/06/14 02:30:20;;;;;;;4.60;3.40;;;10.60;99.90;;;;;;4996092;28;20842;-82
2021/06/14 02:32:47;;;;;;;7.13;3.80;;;;;;;;;;4995238;28;20449;-81
2021/06/14 02:35:16;;;;;;;4.43;3.20;;;10.60;99.90;;;;;;4995463;28;20452;-81
2021/06/14 02:37:47;;;;;;;6.33;3.87;;;10.50;99.90;;;;;;4995190;28;20464;-82
2021/06/14 02:40:15;;;;;;;3.70;3.40;;;10.60;99.90;;;;;;4992914;28;20503;-81
2021/06/14 02:42:45;;;;;;;5.43;3.63;;;10.60;99.90;;;;;;4994904;28;20855;-83
2021/06/14 02:45:14;;;;;;;5.17;4.07;;;10.40;99.90;;;;;;4995383;28;20640;-81
2021/06/14 02:47:42;;;;;;;4.73;3.20;;;10.50;99.90;;;;;;4995269;28;20445;-81
2021/06/14 02:50:11;;;;;;;5.57;3.80;;;10.50;99.90;;;;;;4995220;28;20497;-81
2021/06/14 02:52:42;;;;;;;4.50;3.83;;;10.10;99.90;;;;;;4994782;28;20449;-81
2021/06/14 02:55:15;;;;;;;5.00;4.03;;;10.60;99.90;;;;;;4993893;28;20453;-82
2021/06/14 02:57:45;;;;;;;5.37;4.00;;;10.50;99.90;;;;;;4994814;28;20445;-81
2021/06/14 03:00:14;;;;;;;9.93;3.93;;;10.40;99.90;;;;;;4988744;28;21007;-83
2021/06/14 03:02:42;;;;;;;7.17;3.90;;;10.60;99.90;;;;;;4994934;28;20453;-83
2021/06/14 03:05:10;;;;;;;6.20;3.50;;;10.40;99.90;;;;;;4994553;28;20527;-81
2021/06/14 03:07:37;;;;;;;7.07;3.90;;;;;;;;;;4992984;28;20488;-82
2021/06/14 03:10:08;;;;;;;4.67;4.17;;;10.30;99.90;;;;;;4993571;28;20517;-83
2021/06/14 03:12:35;;;;;;;4.57;3.80;;;;;;;;;;4991916;28;20456;-80
2021/06/14 03:15:05;;;;;;;4.83;3.73;;;10.50;99.90;;;;;;4994553;28;20450;-82
2021/06/14 03:17:33;;;;;;;5.30;4.10;;;10.20;99.90;;;;;;4995421;28;20453;-81
2021/06/14 03:20:00;;;;;;;4.97;3.73;;;9.60;99.90;;;;;;4994370;28;20461;-81
2021/06/14 03:22:27;;;;;;;6.67;4.13;;;;;;;;;;4994599;28;20456;-81
2021/06/14 03:24:55;;;;;;;4.30;3.90;;;;;;;;;;4993172;28;20468;-83
2021/06/14 03:27:24;;;;;;;8.30;4.07;;;9.60;99.90;;;;;;4994354;28;20453;-81
2021/06/14 03:29:53;;;;;;;5.70;3.60;;;10.30;99.90;;;;;;4994371;28;20492;-82
2021/06/14 03:32:20;;;;;;;7.27;3.30;;;;;;;;;;4992860;28;20449;-82
2021/06/14 03:34:48;;;;;;;4.33;3.93;;;10.30;99.90;;;;;;4994178;28;20909;-81
2021/06/14 03:37:15;;;;;;;5.57;4.00;;;;;;;;;;4994050;28;20476;-81
2021/06/14 03:39:43;;;;;;;4.40;3.80;;;;;;;;;;4989003;28;20465;-82
2021/06/14 03:42:10;;;;;;;6.93;4.70;;;10.30;99.90;;;;;;4993930;28;20458;-82
2021/06/14 03:44:38;;;;;;;4.97;4.27;;;10.60;99.90;;;;;;4988806;28;20461;-82
2021/06/14 03:47:05;;;;;;;4.10;3.63;;;10.40;99.90;;;;;;4994041;28;20454;-81
2021/06/14 03:49:32;;;;;;;6.03;4.17;;;;;;;;;;4993586;28;20616;-83
2021/06/14 03:52:00;;;;;;;5.00;3.80;;;10.30;99.90;;;;;;4992465;28;20788;-85
2021/06/14 03:54:26;;;;;;;3.97;3.53;;;10.30;99.90;;;;;;4992936;28;20458;-81
2021/06/14 03:56:53;;;;;;;4.00;3.53;;;10.20;99.90;;;;;;4993587;28;20429;-84
2021/06/14 03:59:20;;;;;;;6.03;4.40;;;;;;;;;;4993787;28;20458;-81
2021/06/14 04:01:49;;;;;;;5.50;3.93;;;10.50;99.90;;;;;;4992382;28;20453;-84
2021/06/14 04:04:36;;;;;;;6.87;4.13;;;;;;;;;;4993413;28;20445;-81
2021/06/14 04:07:03;;;;;;;7.40;3.47;;;10.70;99.90;;;;;;4994248;28;20481;-80
2021/06/14 04:09:30;;;;;;;4.73;4.20;;;10.80;99.90;;;;;;4992412;28;20492;-81
2021/06/14 04:11:57;;;;;;;3.90;3.50;;;10.70;99.90;;;;;;4993670;28;20455;-82
2021/06/14 04:14:24;;;;;;;4.40;3.83;;;;;;;;;;4993591;28;20449;-81
2021/06/14 04:16:54;;;;;;;7.13;4.03;;;10.90;99.90;;;;;;4992404;28;20456;-83
2021/06/14 04:19:22;;;;;;;7.87;3.80;;;;;;;;;;4987437;28;20438;-80
2021/06/14 04:21:49;;;;;;;4.53;3.20;;;;;;;;;;4993080;28;20453;-80
2021/06/14 04:24:15;;;;;;;3.77;3.37;;;11.20;99.90;;;;;;4985489;28;20453;-81
2021/06/14 04:26:45;;;;;;;5.93;3.93;;;;;;;;;;4992909;28;20469;-81
2021/06/14 04:29:13;;;;;;;5.50;4.03;;;;;;;;;;4989773;28;20524;-80
2021/06/14 04:31:42;;;;;;;4.60;3.90;;;11.60;99.90;;;;;;4989225;28;20436;-81
2021/06/14 04:34:10;;;;;;;4.93;3.70;;;11.70;99.90;;;;;;4990439;28;20500;-79
2021/06/14 04:36:39;;;;;;;5.20;3.80;;;11.50;99.90;;;;;;4989954;28;20491;-80
2021/06/14 04:39:06;;;;;;;5.57;3.97;;;;;;;;;;4991648;28;20433;-83
2021/06/14 04:41:33;;;;;;;3.77;3.43;;;;;;;;;;4988428;28;20513;-81
2021/06/14 04:44:00;;;;;;;5.00;4.40;;;;;;;;;;4992540;28;20496;-81
2021/06/14 04:46:28;;;;;;;4.50;3.87;;;;;;;;;;4992899;28;20449;-84
2021/06/14 04:48:55;;;;;;;9.33;4.47;;;;;;;;;;4992732;28;20510;-82
2021/06/14 04:51:23;;;;;;;4.30;3.90;;;12.80;99.90;;;;;;4992697;28;21058;-82
2021/06/14 04:53:51;;;;;;;6.87;4.40;;;;;;;;;;4991445;28;20452;-82
2021/06/14 04:56:18;;;;;;;3.83;3.40;;;12.80;99.90;;;;;;4992811;28;20457;-82
2021/06/14 04:58:45;;;;;;;6.00;3.90;;;;;;;;;;4996790;28;20445;-82
2021/06/14 05:01:13;;;;;;;5.33;3.67;;;;;;;;;;4995413;28;20457;-84
2021/06/14 05:03:40;;;;;;;4.60;3.50;;;;;;;;;;4994229;28;20539;-83
2021/06/14 05:06:07;;;;;;;4.90;3.60;;;;;;;;;;4993378;28;20452;-82
2021/06/14 05:08:36;;;;;;;4.33;3.83;;;14.10;99.90;;;;;;4998703;28;20844;-84
2021/06/14 05:11:03;;;;;;;6.83;4.00;;;;;;;;;;4998603;28;20493;-85
2021/06/14 05:13:30;;;;;;;11.20;4.17;;;14.00;99.90;;;;;;4999132;28;21035;-83
2021/06/14 05:15:57;;;;;;;6.80;3.27;;;;;;;;;;4992691;28;20539;-81
2021/06/14 05:18:25;;;;;;;8.73;3.93;;;14.30;99.90;;;;;;5003796;28;20453;-84
2021/06/14 05:20:57;;;;;;;3.70;3.00;;;14.10;99.90;;;;;;5008276;28;20433;-88
2021/06/14 05:23:26;;;;;;;7.30;3.70;;;;;;;;;;4994631;28;20551;-87
2021/06/14 05:25:55;;;;;;;4.53;3.33;;;14.20;99.90;;;;;;4998616;28;20469;-82
2021/06/14 05:28:22;;;;;;;6.83;3.10;;;;;;;;;;4998496;28;20453;-83
2021/06/14 05:30:49;;;;;;;3.53;2.90;;;;;;;;;;4997854;28;20504;-89
2021/06/14 05:33:16;;;;;;;4.73;3.50;;;;;;;;;;4995326;28;20456;-87
2021/06/14 05:35:43;;;;;;;4.77;3.50;;;;;;;;;;4998541;28;20450;-83
2021/06/14 05:38:10;;;;;;;3.97;3.63;;;;;;;;;;4996819;28;20472;-85
2021/06/14 05:40:37;;;;;;;4.13;3.23;;;16.30;99.90;;;;;;4996474;28;20936;-86
2021/06/14 05:43:05;;;;;;;4.70;3.60;;;16.20;99.90;;;;;;4993282;28;20445;-87
2021/06/14 05:45:32;;;;;;;5.87;3.77;;;16.90;99.90;;;;;;4997184;28;20464;-85
2021/06/14 05:47:59;;;;;;;9.30;3.70;;;17.50;99.90;;;;;;4997328;28;20544;-86
2021/06/14 05:50:26;;;;;;;6.03;3.60;;;;;;;;;;4994018;28;20493;-85
2021/06/14 05:52:53;;;;;;;6.80;3.50;;;17.90;99.90;;;;;;4998675;28;20456;-84
2021/06/14 05:55:19;;;;;;;4.30;3.80;;;18.50;99.90;;;;;;4998126;28;20449;-87
2021/06/14 05:57:46;;;;;;;7.03;3.50;;;18.50;99.90;;;;;;4995588;28;20453;-88
2021/06/14 06:00:17;;;;;;;3.97;3.57;;;18.40;99.90;;;;;;4996219;28;20971;-89
2021/06/14 06:02:44;;;;;;;4.33;3.43;;;18.50;99.90;;;;;;4998270;28;20453;-91
2021/06/14 06:05:12;;;;;;;12.70;3.70;;;19.40;99.70;;;;;;4995804;28;20809;-88
2021/06/14 06:07:40;;;;;;;3.60;3.20;;;;;;;;;;4948272;28;20477;-87
2021/06/14 06:10:09;;;;;;;3.77;3.27;;;19.40;99.10;;;;;;4996762;28;20821;-88
2021/06/14 06:12:36;;;;;;;6.03;3.47;;;;;;;;;;4997015;28;20449;-89
2021/06/14 06:15:04;;;;;;;5.10;3.40;;;19.50;99.90;;;;;;4997766;28;20948;-90
2021/06/14 06:17:32;;;;;;;3.90;2.90;;;19.40;99.90;;;;;;4997403;28;20464;-82
2021/06/14 06:19:59;;;;;;;6.47;3.43;;;19.80;99.90;;;;;;4997038;28;20453;-85
2021/06/14 06:22:26;;;;;;;4.60;3.57;;;19.50;99.90;;;;;;4998920;28;20455;-87
2021/06/14 06:24:53;;;;;;;5.20;3.97;;;19.40;99.90;;;;;;4996607;28;20457;-83
2021/06/14 06:27:20;;;;;;;3.77;3.30;;;;;;;;;;4997305;28;20461;-84
2021/06/14 06:29:47;;;;;;;6.13;3.53;;;20.30;99.90;;;;;;4998612;28;20454;-84
2021/06/14 06:32:16;;;;;;;4.00;3.30;;;;;;;;;;5005909;28;20945;-86
2021/06/14 06:34:44;;;;;;;4.37;3.13;;;20.30;99.90;;;;;;4996098;28;20852;-83
2021/06/14 06:37:11;;;;;;;4.37;3.40;;;20.50;99.90;;;;;;4996780;28;20812;-84
2021/06/14 06:39:38;;;;;;;7.30;3.80;;;20.70;99.90;;;;;;4993475;28;20440;-83
2021/06/14 06:42:06;;;;;;;6.67;3.27;;;20.70;99.90;;;;;;4993997;28;20971;-86
2021/06/14 06:44:33;;;;;;;5.40;3.57;;;20.40;99.90;;;;;;4994497;28;20453;-86
2021/06/14 06:47:04;;;;;;;5.23;3.60;;;20.20;99.90;;;;;;4997339;28;20445;-88
2021/06/14 06:49:31;;;;;;;3.63;3.07;;;20.10;96.20;;;;;;4994094;28;20889;-85
2021/06/14 06:51:59;;;;;;;5.47;3.20;;;20.30;99.90;;;;;;4995561;28;20523;-85
2021/06/14 06:54:27;;;;;;;5.40;3.77;;;20.60;99.90;;;;;;4995120;28;20449;-85
2021/06/14 06:56:55;;;;;;;4.50;3.50;;;21.30;99.90;;;;;;4997850;28;20460;-91
2021/06/14 06:59:26;;;;;;;7.20;3.03;;;21.20;99.50;;;;;;4991373;28;20802;-82
2021/06/14 07:01:53;;;;;;;5.13;3.10;;;21.40;99.70;;;;;;4977707;28;20450;-84
2021/06/14 07:04:20;;;;;;;5.00;3.20;;;21.70;99.90;;;;;;4997232;28;20785;-86
2021/06/14 07:06:48;;;;;;;4.83;3.00;;;22.00;99.90;;;;;;4997156;28;20448;-83
2021/06/14 07:09:16;;;;;;;6.60;3.20;;;22.40;99.90;;;;;;4994349;28;20784;-83
2021/06/14 07:11:43;;;;;;;5.30;3.20;;;22.40;91.80;;;;;;4997679;28;20496;-85
2021/06/14 07:14:10;;;;;;;4.67;3.00;;;22.60;99.90;;;;;;4996514;28;20457;-83
2021/06/14 07:16:39;;;;;;;6.33;3.00;;;22.50;91.80;;;;;;4995435;28;20457;-85
2021/06/14 07:19:08;;;;;;;3.37;3.00;;;22.80;99.90;;;;;;4995369;28;20453;-83
2021/06/14 07:21:35;;;;;;;4.53;2.80;;;21.80;99.90;;;;;;4996967;28;20449;-88
2021/06/14 07:24:02;;;;;;;3.40;2.63;;;21.40;99.90;;;;;;4993467;28;20552;-89
2021/06/14 07:26:33;;;;;;;7.47;3.77;;;21.90;99.90;;;;;;4997950;28;20545;-86
2021/06/14 07:29:01;;;;;;;8.50;3.40;;;21.90;99.90;;;;;;4994031;28;20456;-86
2021/06/14 07:31:28;;;;;;;3.50;3.17;;;22.50;99.90;;;;;;5000376;28;20496;-87
2021/06/14 07:33:57;;;;;;;3.23;2.93;;;;;;;;;;4997359;28;20819;-81
2021/06/14 07:36:24;;;;;;;4.50;3.13;;;22.10;99.90;;;;;;4990876;28;20491;-85
2021/06/14 07:38:51;;;;;;;3.93;3.20;;;22.00;99.90;;;;;;4994582;28;20446;-91
2021/06/14 07:41:18;;;;;;;6.93;3.10;;;22.30;96.00;;;;;;4995306;28;20450;-92
2021/06/14 07:43:47;;;;;;;5.40;3.13;;;22.40;99.90;;;;;;4994328;28;20454;-86
2021/06/14 07:46:15;;;;;;;5.83;2.73;;;22.80;99.90;;;;;;4994251;28;20469;-90
2021/06/14 07:48:42;;;;;;;4.80;2.80;;;23.10;99.90;;;;;;4997934;28;20453;-91
2021/06/14 07:51:09;;;;;;;3.70;3.20;;;22.80;99.20;;;;;;4998203;28;20607;-93
2021/06/14 07:53:37;;;;;;;5.20;3.00;;;23.50;89.80;;;;;;4991495;28;20446;-88
2021/06/14 07:56:06;;;;;;;4.53;2.47;;;23.90;98.60;;;;;;4998274;28;20449;-91
2021/06/14 07:58:34;;;;;;;6.73;2.47;;;24.30;99.90;;;;;;4957453;29;20463;-89
2021/06/14 08:01:04;;;;;;;4.47;3.00;;;24.50;97.00;;;;;;4959072;29;20459;-93
2021/06/14 08:03:33;;;;;;;4.87;2.80;;;24.20;82.90;;;;;;4959184;29;20455;-88
2021/06/14 08:06:04;;;;;;;6.70;3.10;;;24.10;96.60;;;;;;4961851;29;20451;-94
2021/06/14 08:08:31;;;;;;;4.50;2.80;;;;;;;;;;4938449;29;20487;-87
2021/06/14 08:10:58;;;;;;;4.50;2.80;;;;;;;;;;4960535;29;20499;-92
2021/06/14 08:13:26;;;;;;;3.10;2.80;;;24.30;92.90;;;;;;4962048;29;20526;-86
2021/06/14 08:15:53;;;;;;;5.60;3.53;;;;;;;;;;4966737;28;20441;-90
2021/06/14 08:18:32;;;;;;;4.80;3.50;;;24.60;97.50;;;;;;5002021;28;20455;-90
2021/06/14 08:21:10;;;;;;;4.10;2.60;;;24.40;83.90;;;;;;5001321;28;20453;-89
2021/06/14 08:26:23;;;;;;;3.27;2.97;;;24.10;95.40;;;;;;5004536;28;20500;-86
2021/06/14 08:28:49;;;;;;;7.00;2.97;;;24.50;82.40;;;;;;4998247;28;20477;-88
2021/06/14 08:31:17;;;;;;;7.23;3.10;;;;;;;;;;4999973;28;20581;-91
2021/06/14 08:33:45;;;;;;;5.03;2.93;;;24.30;80.10;;;;;;4997103;28;20469;-88
2021/06/14 08:36:12;;;;;;;6.33;3.30;;;24.30;80.60;;;;;;4993617;28;20801;-82
2021/06/14 08:38:39;;;;;;;4.03;3.20;;;;;;;;;;4999221;28;20457;-91
2021/06/14 08:41:06;;;;;;;5.67;2.90;;;24.60;97.50;;;;;;4999508;28;20453;-86
2021/06/14 08:43:34;;;;;;;5.73;3.20;;;23.80;95.60;;;;;;4999232;28;20453;-89
2021/06/14 08:46:01;;;;;;;4.63;3.10;;;23.90;84.00;;;;;;5004327;28;20449;-90
2021/06/14 08:48:28;;;;;;;3.90;3.10;;;;;;;;;;4999199;28;21114;-87
2021/06/14 08:50:56;;;;;;;4.70;3.70;;;25.30;80.30;;;;;;5003636;28;20983;-88
2021/06/14 08:53:24;;;;;;;3.60;2.73;;;;;;;;;;4996278;28;20532;-87
2021/06/14 08:55:51;;;;;;;4.87;2.87;;;24.20;78.30;;;;;;5002824;28;20846;-92
2021/06/14 08:58:18;;;;;;;8.07;2.93;;;;;;;;;;5004810;28;20441;-90
2021/06/14 09:00:46;;;;;;;6.00;2.83;;;;;;;;;;5000857;28;20453;-94
2021/06/14 09:03:13;;;;;;;4.20;2.70;;;;;;;;;;4993744;28;20460;-90
2021/06/14 09:05:45;;;;;;;5.83;3.20;;;25.70;93.70;;;;;;4997456;28;20449;-94
2021/06/14 09:08:14;;;;;;;4.37;2.83;;;24.80;93.50;;;;;;4993354;28;20508;-83
2021/06/14 09:10:41;;;;;;;5.87;2.40;;;24.90;93.20;;;;;;4994042;28;20457;-88
2021/06/14 09:13:14;;;;;;;10.53;2.93;;;25.10;92.60;;;;;;4997557;28;20933;-91
2021/06/14 09:15:42;;;;;;;5.10;2.70;;;25.20;93.80;;;;;;4987256;28;20453;-89
2021/06/14 09:18:21;;;;;;;3.57;2.80;;;25.30;76.30;;;;;;4999414;28;20449;-95
2021/06/14 09:20:56;;;;;;;4.03;2.73;;;25.80;72.50;;;;;;4997433;28;20488;-92
2021/06/14 09:23:42;;;;;;;3.03;2.80;;;26.30;93.10;;;;;;4993583;28;20456;-92
2021/06/14 09:26:20;;;;;;;5.13;2.70;;;25.80;70.80;;;;;;4981348;28;20474;-93
2021/06/14 09:28:48;;;;;;;3.97;2.60;;;26.10;84.30;;;;;;4977457;28;20477;-82
2021/06/14 09:31:15;;;;;;;4.10;2.53;;;26.00;90.10;;;;;;4978423;28;20457;-92
2021/06/14 09:33:47;;;;;;;4.47;2.23;;;25.90;92.50;;;;;;4978417;28;20450;-90
2021/06/14 09:36:15;;;;;;;4.83;2.40;;;26.50;88.10;;;;;;4974881;28;20517;-92
2021/06/14 09:38:44;;;;;;;3.03;2.47;;;25.40;89.40;;;;;;4972492;28;20565;-89
2021/06/14 09:41:13;;;;;;;3.90;2.03;;;26.30;80.80;;;;;;4981391;28;20482;-90
2021/06/14 09:43:42;;;;;;;3.53;2.20;;;26.00;69.70;;;;;;4982749;28;20448;-90
2021/06/14 09:46:25;;;;;;;5.00;2.93;;;26.20;91.80;;;;;;4984476;28;20450;-94
2021/06/14 09:48:52;;;;;;;4.97;2.70;;;26.00;83.70;;;;;;4982110;28;20817;-89
2021/06/14 09:51:20;;;;;;;3.50;2.67;;;25.80;89.40;;;;;;4983482;28;20453;-87
2021/06/14 09:53:53;;;;;;;3.20;2.63;;;25.20;91.30;;;;;;5000253;28;20508;-92
2021/06/14 09:56:23;;;;;;;2.70;2.50;;;26.00;71.40;;;;;;4995442;28;20448;-89
2021/06/14 09:58:52;;;;;;;3.03;2.50;;;25.90;69.60;;;;;;5003422;28;20444;-91
2021/06/14 10:01:27;;;;;;;3.07;2.47;;;26.40;82.40;;;;;;5003797;28;20488;-92
2021/06/14 10:03:57;;;;;;;4.47;2.13;;;27.00;90.30;;;;;;4996591;28;20444;-88
2021/06/14 10:06:35;;;;;;;6.80;2.67;;;26.10;68.80;;;;;;5003545;28;20471;-90
2021/06/14 10:09:13;;;;;;;3.53;2.27;;;27.00;77.10;;;;;;5002406;28;20449;-93
2021/06/14 10:11:46;;;;;;;3.27;2.50;;;27.40;61.80;;;;;;4994990;28;20448;-91
2021/06/14 10:14:17;;;;;;;3.30;2.27;;;27.40;61.60;;;;;;4999977;28;20449;-91
2021/06/14 10:16:46;;;;;;;6.03;2.50;;;27.60;62.30;;;;;;5003258;28;20521;-92
2021/06/14 10:19:15;;;;;;;3.30;2.50;;;27.40;62.20;;;;;;5004543;28;20973;-93
2021/06/14 10:21:44;;;;;;;3.67;2.30;;;27.50;63.50;;;;;;5001096;28;20497;-93
2021/06/14 10:24:15;;;;;;;3.87;2.60;;;27.40;64.30;;;;;;4992365;28;20855;-91
2021/06/14 10:26:43;;;;;;;4.87;2.50;;;26.40;61.70;;;;;;5001221;28;20445;-89
2021/06/14 10:29:12;;;;;;;6.03;2.67;;;26.90;63.10;;;;;;4997646;28;20453;-86
2021/06/14 10:31:40;;;;;;;4.10;2.20;;;27.30;61.40;;;;;;4992916;28;20457;-90
2021/06/14 10:34:08;;;;;;;3.60;2.53;;;;;;;;;;4994567;28;20449;-95
2021/06/14 10:36:43;;;;;;;3.63;2.57;;;27.10;61.20;;;;;;5001222;28;20473;-91
2021/06/14 10:39:11;;;;;;;3.43;2.80;;;27.20;77.70;;;;;;4995242;28;20464;-87
2021/06/14 10:41:42;;;;;;;4.23;2.90;;;26.80;64.00;;;;;;4995514;28;20502;-93
2021/06/14 10:44:10;;;;;;;2.43;2.10;;;25.30;68.10;;;;;;4996342;28;21024;-87
2021/06/14 10:46:37;;;;;;;4.40;2.40;;;;;;;;;;5005312;28;20912;-87
2021/06/14 10:49:05;;;;;;;2.90;2.60;;;26.50;62.30;;;;;;4992500;28;20456;-89
2021/06/14 10:51:32;;;;;;;3.50;2.27;;;26.60;85.70;;;;;;4994617;28;20495;-89
2021/06/14 10:54:07;;;;;;;4.83;2.40;;;27.20;60.70;;;;;;4993144;28;20476;-87
2021/06/14 10:56:34;;;;;;;1.97;1.87;;;;;;;;;;4991986;28;20457;-91
2021/06/14 10:59:04;;;;;;;5.60;2.77;;;27.20;59.70;;;;;;4996486;28;20448;-87
2021/06/14 11:01:36;;;;;;;3.63;2.30;;;27.00;63.20;;;;;;4995626;28;20492;-94
2021/06/14 11:04:03;;;;;;;7.20;2.40;;;;;;;;;;4996706;28;20546;-91
2021/06/14 11:06:32;;;;;;;4.33;2.43;;;27.00;59.00;;;;;;4996400;28;20982;-93
2021/06/14 11:09:08;;;;;;;3.20;2.43;;;27.40;58.80;;;;;;4994643;28;20503;-92
2021/06/14 11:11:52;;;;;;;3.20;2.33;;;27.10;59.40;;;;;;4996137;28;20830;-85
2021/06/14 11:14:34;;;;;;;2.83;2.00;;;27.40;93.50;;;;;;4998924;28;20437;-89
2021/06/14 11:17:23;;;;;;;3.90;2.57;;;26.80;71.20;;;;;;5001311;28;20453;-91
2021/06/14 11:19:52;;;;;;;3.10;2.30;;;27.60;63.10;;;;;;4998819;28;20454;-90
2021/06/14 11:22:20;;;;;;;4.67;2.43;;;26.60;60.40;;;;;;4993846;28;20477;-92
2021/06/14 11:24:49;;;;;;;4.10;2.40;;;26.70;60.50;;;;;;4995686;28;20473;-86
2021/06/14 11:27:16;;;;;;;2.10;1.90;;;;;;;;;;4994957;28;20453;-81
2021/06/14 11:29:50;;;;;;;4.03;2.00;;;27.20;74.10;;;;;;4994736;28;20480;-85
2021/06/14 11:32:21;;;;;;;2.53;1.90;;;27.30;78.00;;;;;;4996169;28;20457;-92
2021/06/14 11:34:52;;;;;;;3.70;2.10;;;26.80;80.80;;;;;;4994786;28;20453;-84
2021/06/14 11:37:19;;;;;;;3.40;2.90;;;27.00;70.20;;;;;;4996341;28;20468;-89
2021/06/14 11:39:46;;;;;;;3.70;2.20;;;27.10;83.60;;;;;;4994126;28;20445;-82
2021/06/14 11:42:15;;;;;;;2.43;2.23;;;26.00;83.30;;;;;;4994132;28;20489;-81
2021/06/14 11:44:58;;;;;;;4.80;2.33;;;25.90;63.20;;;;;;4994435;28;20537;-83
2021/06/14 11:47:28;;;;;;;4.70;2.20;;;27.20;90.00;;;;;;4994070;28;20453;-87
2021/06/14 11:49:59;;;;;;;4.20;1.97;;;27.80;89.50;;;;;;4994034;28;20485;-86
2021/06/14 11:52:31;;;;;;;3.47;2.30;;;27.60;76.40;;;;;;4991359;28;20445;-84
2021/06/14 11:55:00;;;;;;;2.97;2.20;;;28.10;75.00;;;;;;4992272;28;20548;-86
2021/06/14 11:57:29;;;;;;;3.13;2.13;;;27.50;81.70;;;;;;4994286;28;20449;-85
2021/06/14 11:59:58;;;;;;;3.83;2.20;;;27.90;82.80;;;;;;4993484;28;20928;-86
2021/06/14 12:02:29;;;;;;;3.40;2.37;;;27.40;58.30;;;;;;4993684;28;20495;-86
2021/06/14 12:04:58;;;;;;;2.60;2.40;;;27.40;62.70;;;;;;4993978;28;20936;-83
2021/06/14 12:07:29;;;;;;;3.40;2.10;;;27.60;76.40;;;;;;4994371;28;21019;-92
2021/06/14 12:09:57;;;;;;;2.40;2.20;;;27.90;84.20;;;;;;4993202;28;20450;-91
2021/06/14 12:12:24;;;;;;;5.03;2.50;;;27.20;75.00;;;;;;4993212;28;20456;-87
2021/06/14 12:14:52;;;;;;;3.27;2.20;;;27.50;79.10;;;;;;4990515;28;20445;-85
2021/06/14 12:17:29;;;;;;;3.57;2.57;;;27.40;82.90;;;;;;4990417;28;20441;-86
2021/06/14 12:19:56;;;;;;;2.77;1.97;;;26.70;86.50;;;;;;4993136;28;20472;-86
2021/06/14 12:22:24;;;;;;;4.10;2.17;;;26.00;91.40;;;;;;4993411;28;20497;-83
2021/06/14 12:24:52;;;;;;;2.50;2.30;;;25.90;87.20;;;;;;4992268;28;20484;-82
2021/06/14 12:27:21;;;;;;;4.17;2.17;;;26.40;61.00;;;;;;4989304;28;20933;-86
2021/06/14 12:29:56;;;;;;;2.80;1.83;;;26.90;62.00;;;;;;4993453;28;20822;-85
2021/06/14 12:32:25;;;;;;;3.33;1.90;;;27.00;94.10;;;;;;4994234;28;20456;-87
2021/06/14 12:34:52;;;;;;;3.10;2.10;;;;;;;;;;4993986;28;20481;-85
2021/06/14 12:37:22;;;;;;;5.00;2.10;;;27.30;59.80;;;;;;4995638;28;21111;-88
2021/06/14 12:39:57;;;;;;;3.43;2.10;;;27.70;94.20;;;;;;4989395;28;20825;-86
2021/06/14 12:42:26;;;;;;;2.67;2.10;;;29.30;63.60;;;;;;4993690;28;20499;-86
2021/06/14 12:44:57;;;;;;;3.97;2.47;;;27.70;58.90;;;;;;4993737;28;20444;-88
2021/06/14 12:47:26;;;;;;;4.20;2.37;;;27.40;58.20;;;;;;4991839;28;20459;-89
2021/06/14 12:49:54;;;;;;;3.90;2.30;;;27.50;58.70;;;;;;4993438;28;20456;-88
2021/06/14 12:52:22;;;;;;;2.87;2.03;;;27.90;60.90;;;;;;4993189;28;20460;-86
2021/06/14 12:54:50;;;;;;;2.13;1.93;;;;;;;;;;4989414;28;20446;-92
2021/06/14 12:57:17;;;;;;;2.57;2.20;;;;;;;;;;4987311;28;20452;-86
2021/06/14 12:59:45;;;;;;;4.03;2.30;;;;;;;;;;4993397;28;20865;-92
2021/06/14 13:02:15;;;;;;;5.60;2.27;;;27.60;79.20;;;;;;4990567;28;20796;-92
2021/06/14 13:04:43;;;;;;;2.53;2.13;;;28.40;80.10;;;;;;4993805;28;20460;-86
2021/06/14 13:07:14;;;;;;;4.30;1.90;;;27.70;57.80;;;;;;4993417;28;20481;-88
2021/06/14 13:09:46;;;;;;;3.40;2.30;;;27.90;59.80;;;;;;4988294;28;20449;-85
2021/06/14 13:12:13;;;;;;;6.03;2.23;;;;;;;;;;4993049;28;20450;-85
2021/06/14 13:14:40;;;;;;;3.73;2.00;;;;;;;;;;4993437;28;20453;-80
2021/06/14 13:17:07;;;;;;;4.50;2.37;;;27.60;85.50;;;;;;4992989;28;20457;-84
2021/06/14 13:19:36;;;;;;;3.20;2.60;;;28.70;73.40;;;;;;4997116;28;20449;-84
2021/06/14 13:22:15;;;;;;;3.67;2.20;;;29.00;85.00;;;;;;4979932;28;20488;-88